Time;durP1;ratioP1;P1;durP2;ratioP2;P2;SDS_P1;SDS_P2;PMS_P1;PMS_P2;Temp;Humidity;BMP_temperature;BMP_pressure;BME280_temperature;BME280_humidity;BME280_pressure;Samples;Min_cycle;Max_cycle;Signal;HPM_P1;HPM_P2
2022/08/18 00:01:13;;;;;;;20.95;18.70;;;;;;;21.48;83.81;100343.08;1815050;78;25755;-78
2022/08/18 00:03:40;;;;;;;19.80;17.70;;;;;;;21.45;83.89;100355.86;1817627;78;26026;-78
2022/08/18 00:06:07;;;;;;;22.50;18.85;;;;;;;21.44;83.97;100359.69;1817011;78;26295;-79
2022/08/18 00:08:33;;;;;;;20.10;18.00;;;;;;;21.42;83.83;100355.05;1823251;78;26569;-77
2022/08/18 00:11:00;;;;;;;18.55;16.87;;;;;;;21.39;83.84;100356.92;1812576;78;28039;-78
2022/08/18 00:13:26;;;;;;;20.00;17.77;;;;;;;21.36;83.80;100354.17;1818291;78;25833;-78
2022/08/18 00:15:52;;;;;;;19.90;17.77;;;;;;;21.33;83.89;100361.53;1821005;78;25722;-78
2022/08/18 00:18:19;;;;;;;19.67;17.67;;;;;;;21.30;83.90;100365.30;1809319;78;26306;-79
2022/08/18 00:20:47;;;;;;;18.85;16.80;;;;;;;21.28;84.01;100364.21;1814374;78;25668;-78
2022/08/18 00:23:14;;;;;;;16.25;14.63;;;;;;;21.27;84.14;100371.29;1806964;78;27427;-78
2022/08/18 00:25:41;;;;;;;18.67;15.95;;;;;;;21.25;84.18;100386.55;1817832;78;25724;-77
2022/08/18 00:28:07;;;;;;;16.87;15.18;;;;;;;21.23;84.01;100389.25;1814210;78;25779;-78
2022/08/18 00:30:33;;;;;;;16.45;14.53;;;;;;;21.19;83.86;100388.92;1812275;78;25837;-78
2022/08/18 00:33:00;;;;;;;16.07;14.18;;;;;;;21.13;83.81;100394.06;1813481;78;25774;-79
2022/08/18 00:35:32;;;;;;;16.05;14.25;;;;;;;21.10;83.81;100400.05;1809657;78;27664;-78
2022/08/18 00:38:02;;;;;;;18.12;15.70;;;;;;;21.07;83.81;100399.20;1811311;78;25902;-78
2022/08/18 00:40:34;;;;;;;18.67;16.23;;;;;;;21.04;84.01;100405.15;1798160;77;25797;-78
2022/08/18 00:43:03;;;;;;;17.42;15.55;;;;;;;21.02;84.01;100399.67;1808051;78;26231;-78
2022/08/18 00:45:35;;;;;;;14.85;13.43;;;;;;;20.96;84.05;100403.41;1812668;78;25769;-78
2022/08/18 00:48:04;;;;;;;15.58;14.07;;;;;;;20.92;83.94;100399.03;1813278;78;27463;-78
2022/08/18 00:50:54;;;;;;;17.98;15.83;;;;;;;20.91;84.05;100403.38;1822405;78;26388;-78
2022/08/18 00:53:44;;;;;;;17.55;15.83;;;;;;;20.88;84.19;100404.72;1797983;77;25715;-79
2022/08/18 00:56:16;;;;;;;20.02;15.08;;;;;;;20.86;84.17;100406.87;1798183;78;25775;-77
2022/08/18 00:59:03;;;;;;;20.00;15.35;;;;;;;20.83;84.10;100406.02;1798317;78;26373;-78
2022/08/18 01:01:32;;;;;;;17.65;15.85;;;;;;;20.78;83.93;100412.23;1766095;79;28281;-78
2022/08/18 01:04:09;;;;;;;17.62;15.93;;;;;;;20.75;84.11;100416.03;1812772;78;25728;-78
2022/08/18 01:06:41;;;;;;;17.92;16.00;;;;;;;20.75;84.48;100418.75;1806270;78;25746;-77
2022/08/18 01:09:08;;;;;;;17.90;16.07;;;;;;;20.74;84.49;100411.11;1801419;78;25822;-78
2022/08/18 01:11:37;;;;;;;18.35;16.42;;;;;;;20.72;84.27;100413.27;1815709;78;25861;-77
2022/08/18 01:14:07;;;;;;;20.65;17.15;;;;;;;20.69;84.30;100412.45;1816413;78;27628;-78
2022/08/18 01:22:13;;;;;;;13.25;11.73;;;;;;;20.57;84.29;100424.00;1826851;78;25754;-78
2022/08/18 01:27:29;;;;;;;14.68;13.18;;;;;;;20.41;84.26;100428.18;1804978;78;27465;-78
2022/08/18 01:29:54;;;;;;;14.83;13.53;;;;;;;20.38;84.25;100432.23;1817427;78;25749;-77
2022/08/18 01:32:22;;;;;;;13.80;12.50;;;;;;;20.35;84.23;100431.92;1816218;78;25253;-77
2022/08/18 01:34:51;;;;;;;13.72;12.23;;;;;;;20.30;84.22;100431.33;1827109;78;25824;-77
2022/08/18 01:37:22;;;;;;;13.68;12.25;;;;;;;20.28;84.08;100440.81;1823344;78;25990;-78
2022/08/18 01:39:49;;;;;;;14.98;13.32;;;;;;;20.26;84.17;100447.05;1830148;78;27413;-77
2022/08/18 01:42:17;;;;;;;19.95;16.15;;;;;;;20.25;84.24;100447.58;1812635;78;26445;-77
2022/08/18 01:44:46;;;;;;;20.27;15.53;;;;;;;20.25;84.38;100443.50;1824872;78;25870;-77
2022/08/18 01:47:14;;;;;;;16.27;13.80;;;;;;;20.26;84.25;100445.69;1820508;78;26516;-76
2022/08/18 01:49:41;;;;;;;13.93;12.35;;;;;;;20.26;84.19;100441.08;1827286;78;25894;-77
2022/08/18 01:52:12;;;;;;;14.90;12.95;;;;;;;20.26;84.06;100442.44;1812794;78;27468;-77
2022/08/18 01:54:39;;;;;;;12.15;10.38;;;;;;;20.25;84.08;100438.62;1822069;78;25871;-78
2022/08/18 01:57:06;;;;;;;11.80;10.00;;;;;;;20.21;83.81;100426.04;1810848;78;25848;-78
2022/08/18 01:59:34;;;;;;;11.73;10.25;;;;;;;20.17;83.78;100426.77;1829101;78;25760;-77
2022/08/18 02:02:00;;;;;;;10.35;9.05;;;;;;;20.10;83.88;100428.34;1829204;78;25719;-77
2022/08/18 02:04:32;;;;;;;11.85;10.20;;;;;;;20.09;83.84;100436.73;1823747;78;27428;-78
2022/08/18 02:07:01;;;;;;;12.28;11.08;;;;;;;20.06;83.95;100429.10;1816258;78;26066;-77
2022/08/18 02:09:30;;;;;;;15.13;10.63;;;;;;;20.03;83.91;100430.42;1813907;78;25792;-77
2022/08/18 02:11:57;;;;;;;14.20;12.28;;;;;;;20.00;83.86;100429.02;1807186;78;25729;-77
2022/08/18 02:14:23;;;;;;;15.53;12.93;;;;;;;19.98;83.99;100427.09;1825996;78;26471;-78
2022/08/18 02:16:50;;;;;;;15.35;13.88;;;;;;;19.90;84.04;100421.28;1817286;78;28485;-77
2022/08/18 02:19:16;;;;;;;17.17;15.03;;;;;;;19.84;84.40;100418.20;1820831;78;25830;-77
2022/08/18 02:21:42;;;;;;;17.07;15.15;;;;;;;19.80;84.66;100420.59;1822812;78;25664;-77
2022/08/18 02:24:09;;;;;;;18.40;16.55;;;;;;;19.79;84.93;100423.56;1813963;78;26299;-77
2022/08/18 02:26:35;;;;;;;20.45;18.50;;;;;;;19.78;85.37;100424.66;1798986;78;25749;-77
2022/08/18 02:29:02;;;;;;;20.12;18.02;;;;;;;19.77;85.75;100428.43;1798391;78;27457;-77
2022/08/18 02:31:28;;;;;;;21.90;19.30;;;;;;;19.79;85.98;100426.28;1788695;78;25855;-77
2022/08/18 02:33:55;;;;;;;20.92;18.75;;;;;;;19.80;86.03;100427.38;1799095;78;25738;-79
2022/08/18 02:36:22;;;;;;;20.95;18.73;;;;;;;19.81;86.09;100420.89;1789733;78;25998;-78
2022/08/18 02:38:48;;;;;;;21.52;18.15;;;;;;;19.81;85.83;100429.05;1798079;78;26009;-77
2022/08/18 02:41:15;;;;;;;25.17;18.25;;;;;;;19.81;85.79;100424.13;1811828;78;27487;-78
2022/08/18 02:43:42;;;;;;;23.02;17.75;;;;;;;19.81;85.81;100420.89;1774404;78;26441;-76
2022/08/18 02:46:09;;;;;;;21.62;19.48;;;;;;;19.80;85.70;100426.02;1802462;78;26514;-77
2022/08/18 02:48:35;;;;;;;21.73;19.52;;;;;;;19.78;85.82;100417.30;1799769;78;25779;-77
2022/08/18 02:51:14;;;;;;;22.95;19.30;;;;;;;19.79;85.90;100413.52;1786575;78;25835;-76
2022/08/18 02:53:44;;;;;;;21.82;19.55;;;;;;;19.80;86.02;100413.00;1788548;79;27463;-77
2022/08/18 02:56:22;;;;;;;20.97;18.90;;;;;;;19.80;86.38;100413.00;1808108;78;25921;-77
2022/08/18 02:58:54;;;;;;;20.57;18.23;;;;;;;19.80;86.28;100414.35;1809849;78;25721;-77
2022/08/18 03:01:24;;;;;;;23.85;18.82;;;;;;;19.80;86.28;100414.35;1819840;77;25699;-77
2022/08/18 03:03:52;;;;;;;21.10;18.95;;;;;;;19.78;86.27;100412.42;1803415;78;25447;-78
2022/08/18 03:06:20;;;;;;;20.70;18.60;;;;;;;19.77;86.23;100412.95;1816951;78;28225;-77
2022/08/18 03:08:49;;;;;;;22.60;18.90;;;;;;;19.77;86.48;100410.77;1812458;78;25904;-77
2022/08/18 03:11:20;;;;;;;20.43;18.32;;;;;;;19.75;86.77;100409.66;1808204;78;25740;-78
2022/08/18 03:13:46;;;;;;;20.80;18.65;;;;;;;19.76;86.82;100411.86;1804127;78;26148;-77
2022/08/18 03:16:14;;;;;;;21.90;19.70;;;;;;;19.74;86.72;100416.69;1805166;78;25287;-77
2022/08/18 03:18:42;;;;;;;20.68;18.45;;;;;;;19.73;86.74;100418.61;1816588;78;26994;-77
2022/08/18 03:21:12;;;;;;;21.68;19.42;;;;;;;19.71;86.59;100418.57;1816993;78;25871;-77
2022/08/18 03:23:39;;;;;;;20.57;18.40;;;;;;;19.68;86.60;100422.60;1805315;78;25916;-77
2022/08/18 03:26:12;;;;;;;22.75;20.35;;;;;;;19.67;87.14;100418.26;1797927;78;25695;-78
2022/08/18 03:28:41;;;;;;;21.73;19.52;;;;;;;19.67;86.86;100418.79;1786167;79;26484;-77
2022/08/18 03:31:10;;;;;;;24.80;20.10;;;;;;;19.67;86.92;100424.22;1797881;78;27512;-77
2022/08/18 03:33:37;;;;;;;23.38;19.95;;;;;;;19.67;86.85;100421.50;1794667;78;26411;-76
2022/08/18 03:36:12;;;;;;;22.60;20.45;;;;;;;19.63;86.89;100426.59;1794053;78;25904;-77
2022/08/18 03:38:41;;;;;;;25.30;21.93;;;;;;;19.63;87.00;100425.23;1792906;78;26349;-77
2022/08/18 03:41:11;;;;;;;24.23;20.50;;;;;;;19.64;87.34;100429.62;1795690;78;25762;-77
2022/08/18 03:43:38;;;;;;;24.43;20.32;;;;;;;19.66;87.49;100425.28;1792238;78;28502;-78
2022/08/18 03:46:09;;;;;;;22.15;19.98;;;;;;;19.70;87.52;100423.70;1794269;78;25809;-77
2022/08/18 03:48:39;;;;;;;22.82;20.43;;;;;;;19.75;87.49;100422.42;1790966;78;25722;-77
2022/08/18 03:51:10;;;;;;;24.00;20.07;;;;;;;19.81;87.38;100428.22;1789977;79;26402;-78
2022/08/18 03:53:37;;;;;;;;;;;;;;;19.86;87.44;100424.22;1768794;79;25894;-77
2022/08/18 03:56:14;;;;;;;22.45;20.15;;;;;;;19.92;87.55;100428.64;1775509;78;27422;-78
2022/08/18 03:58:37;;;;;;;24.60;21.48;;;;;;;19.92;87.55;100432.19;1775643;80;25762;-76
2022/08/18 04:01:04;;;;;;;23.42;21.02;;;;;;;19.98;87.38;100433.06;1770232;80;26558;-78
2022/08/18 04:03:30;;;;;;;24.55;22.10;;;;;;;20.03;87.34;100436.39;1783035;78;25800;-78
2022/08/18 04:05:56;;;;;;;25.17;20.35;;;;;;;20.07;87.34;100442.44;1782781;78;26379;-77
2022/08/18 04:08:23;;;;;;;25.32;22.30;;;;;;;20.12;87.21;100449.31;1783052;79;28235;-77
2022/08/18 04:10:49;;;;;;;23.25;20.65;;;;;;;20.16;87.21;100447.73;1787953;79;25826;-77
2022/08/18 04:13:15;;;;;;;23.77;21.25;;;;;;;20.22;87.08;100450.82;1781042;78;26335;-78
2022/08/18 04:15:42;;;;;;;22.87;20.52;;;;;;;20.26;87.00;100442.44;1785350;79;25782;-77
2022/08/18 04:18:08;;;;;;;20.95;18.75;;;;;;;20.29;86.97;100444.66;1788235;79;25785;-77
2022/08/18 04:20:35;;;;;;;23.95;21.45;;;;;;;20.34;86.95;100446.06;1793004;78;26984;-77
2022/08/18 04:23:01;;;;;;;24.15;20.82;;;;;;;20.37;87.02;100451.01;1791744;78;25272;-78
2022/08/18 04:25:29;;;;;;;21.93;19.62;;;;;;;20.43;86.98;100446.44;1805324;78;25741;-78
2022/08/18 04:27:59;;;;;;;25.50;20.43;;;;;;;20.48;86.99;100454.66;1810119;78;26357;-77
2022/08/18 04:30:23;;;;;;;23.75;21.40;;;;;;;20.55;87.33;100452.02;1814440;78;26545;-77
2022/08/18 04:32:50;;;;;;;23.50;21.20;;;;;;;20.61;87.35;100450.19;1807503;78;27444;-78
2022/08/18 04:35:16;;;;;;;24.20;21.80;;;;;;;20.66;87.32;100446.14;1806134;78;25812;-78
2022/08/18 04:37:43;;;;;;;23.35;21.10;;;;;;;20.69;87.26;100449.19;1809295;78;25691;-77
2022/08/18 04:40:13;;;;;;;24.95;21.02;;;;;;;20.75;87.30;100448.69;1814713;78;26206;-77
2022/08/18 04:42:39;;;;;;;24.15;21.30;;;;;;;20.76;87.19;100446.27;1814620;78;25694;-77
2022/08/18 04:45:07;;;;;;;23.73;21.23;;;;;;;20.80;87.23;100445.20;1824120;78;28000;-77
2022/08/18 04:47:34;;;;;;;24.37;21.73;;;;;;;20.82;87.38;100449.32;1816833;78;26496;-77
2022/08/18 04:50:02;;;;;;;23.10;20.68;;;;;;;20.86;87.40;100453.70;1819985;78;25729;-77
2022/08/18 04:55:14;;;;;;;25.97;22.22;;;;;;;20.94;87.64;100453.23;1821855;78;25896;-78
2022/08/18 04:57:41;;;;;;;25.90;23.10;;;;;;;20.98;87.72;100447.01;1816248;78;28239;-77
2022/08/18 05:00:12;;;;;;;27.67;22.80;;;;;;;21.03;87.75;100462.08;1806505;77;25778;-77
2022/08/18 05:02:37;;;;;;;26.07;22.90;;;;;;;21.07;88.02;100456.39;1831678;77;25767;-77
2022/08/18 05:05:05;;;;;;;27.50;24.57;;;;;;;21.10;88.17;100454.52;1816208;78;26014;-78
2022/08/18 05:07:32;;;;;;;26.68;23.98;;;;;;;21.13;88.37;100456.70;1848935;77;25890;-77
2022/08/18 05:09:59;;;;;;;26.80;24.07;;;;;;;21.14;88.52;100457.01;1842328;77;27606;-77
2022/08/18 05:12:25;;;;;;;26.30;23.47;;;;;;;21.15;88.75;100451.83;1817090;78;25839;-78
2022/08/18 05:14:52;;;;;;;27.73;25.05;;;;;;;21.15;88.86;100450.46;1808062;78;26363;-77
2022/08/18 05:17:21;;;;;;;27.85;25.10;;;;;;;21.19;88.94;100452.94;1814867;78;26307;-77
2022/08/18 05:19:47;;;;;;;25.32;22.60;;;;;;;21.25;89.08;100456.02;1838811;77;25776;-76
2022/08/18 05:22:16;;;;;;;27.07;24.25;;;;;;;21.31;89.08;100457.70;1843112;75;27056;-79
2022/08/18 05:24:42;;;;;;;29.15;23.73;;;;;;;21.39;89.35;100465.38;1830320;75;25289;-78
2022/08/18 05:27:08;;;;;;;27.62;23.12;;;;;;;21.46;89.79;100459.18;1830046;75;25952;-77
2022/08/18 05:29:35;;;;;;;27.40;24.43;;;;;;;21.51;89.83;100458.40;1836464;76;25825;-77
2022/08/18 05:32:06;;;;;;;27.95;25.10;;;;;;;21.56;90.10;100465.23;1838292;75;25929;-77
2022/08/18 05:34:33;;;;;;;26.95;24.12;;;;;;;21.61;90.39;100467.17;1845292;77;27566;-79
2022/08/18 05:37:14;;;;;;;25.72;23.22;;;;;;;21.65;90.47;100457.38;1840976;75;26013;-79
2022/08/18 05:40:01;;;;;;;28.20;24.72;;;;;;;21.70;90.66;100456.89;1842010;75;25791;-79
2022/08/18 05:42:33;;;;;;;27.30;24.50;;;;;;;21.76;91.11;100453.11;1842040;75;25873;-78
2022/08/18 05:45:03;;;;;;;26.10;22.35;;;;;;;21.86;91.18;100449.64;1843383;75;25959;-76
2022/08/18 05:47:31;;;;;;;30.70;25.32;;;;;;;21.95;91.19;100450.78;1831346;77;27431;-77
2022/08/18 05:50:09;;;;;;;33.30;26.33;;;;;;;22.02;91.88;100452.20;1845442;75;26416;-78
2022/08/18 05:52:46;;;;;;;30.25;25.35;;;;;;;22.10;92.03;100443.50;1815366;77;25789;-78
2022/08/18 05:58:45;;;;;;;28.95;25.95;;;;;;;22.24;92.20;100453.37;1830365;77;25733;-80
2022/08/18 06:01:19;;;;;;;31.42;26.02;;;;;;;22.31;92.35;100451.22;1808749;78;27476;-80
2022/08/18 06:03:53;;;;;;;29.67;25.52;;;;;;;22.40;92.71;100457.81;1820944;78;25549;-78
2022/08/18 06:06:28;;;;;;;28.85;25.72;;;;;;;22.51;92.64;100455.94;1805654;78;25955;-78
2022/08/18 06:09:06;;;;;;;26.40;23.62;;;;;;;22.60;92.86;100456.56;1839974;76;26237;-78
2022/08/18 06:11:32;;;;;;;27.10;23.98;;;;;;;22.70;92.66;100462.58;1806476;78;25914;-79
2022/08/18 06:14:00;;;;;;;24.55;22.15;;;;;;;22.80;92.27;100465.32;1821398;78;26887;-80
2022/08/18 06:16:52;;;;;;;32.45;26.50;;;;;;;22.90;91.93;100470.83;1831430;77;25935;-79
2022/08/18 06:19:36;;;;;;;29.05;24.10;;;;;;;22.99;91.84;100463.17;1842190;77;25695;-80
2022/08/18 06:22:24;;;;;;;21.57;19.37;;;;;;;23.11;91.67;100468.93;1840022;77;25776;-79
2022/08/18 06:25:08;;;;;;;30.05;26.07;;;;;;;23.21;91.39;100473.02;1836092;76;25784;-80
2022/08/18 06:28:00;;;;;;;26.93;24.05;;;;;;;23.32;91.57;100471.94;1833679;76;27875;-81
2022/08/18 06:30:44;;;;;;;25.90;22.87;;;;;;;23.42;91.69;100472.78;1836182;77;25883;-80
2022/08/18 06:33:22;;;;;;;27.80;24.82;;;;;;;23.51;91.25;100468.95;1841195;77;25846;-79
2022/08/18 06:35:53;;;;;;;25.65;22.73;;;;;;;23.58;91.12;100464.03;1841746;77;26462;-76
2022/08/18 06:38:37;;;;;;;23.18;20.65;;;;;;;23.66;90.87;100473.88;1845972;77;25870;-76
2022/08/18 06:41:20;;;;;;;24.02;21.50;;;;;;;23.76;90.95;100474.39;1800276;78;27615;-77
2022/08/18 06:44:04;;;;;;;26.90;23.83;;;;;;;23.87;90.74;100471.91;1809832;77;25818;-77
2022/08/18 06:46:40;;;;;;;25.72;22.15;;;;;;;24.00;91.16;100471.88;1822196;77;25793;-77
2022/08/18 06:49:17;;;;;;;24.72;22.02;;;;;;;24.10;90.35;100477.37;1836517;77;25427;-77
2022/08/18 06:51:43;;;;;;;25.57;22.65;;;;;;;24.19;90.19;100481.15;1820946;77;25719;-77
2022/08/18 06:54:26;;;;;;;25.57;20.60;;;;;;;24.27;89.09;100480.02;1826217;77;27832;-78
2022/08/18 06:56:56;;;;;;;21.55;19.32;;;;;;;24.35;89.43;100478.09;1826662;77;26090;-78
2022/08/18 06:59:35;;;;;;;24.50;21.40;;;;;;;24.45;88.83;100475.85;1844960;77;25697;-79
2022/08/18 07:02:16;;;;;;;19.20;17.30;;;;;;;24.53;88.60;100479.36;1834150;76;26317;-78
2022/08/18 07:04:48;;;;;;;;;;;;;;;24.62;88.20;100478.23;1837667;77;25857;-81
2022/08/18 07:07:27;;;;;;;19.48;17.12;;;;;;;24.67;87.28;100474.92;1814550;78;28233;-79
2022/08/18 07:09:53;;;;;;;20.75;17.30;;;;;;;24.70;86.19;100470.81;1845120;75;25695;-80
2022/08/18 07:12:24;;;;;;;21.02;16.65;;;;;;;24.77;86.47;100474.06;1805192;77;25847;-80
2022/08/18 07:14:59;;;;;;;16.57;14.73;;;;;;;24.83;85.02;100470.22;1821176;77;25795;-80
2022/08/18 07:17:31;;;;;;;19.73;14.47;;;;;;;24.89;85.27;100473.19;1799615;77;25785;-81
2022/08/18 07:20:09;;;;;;;22.35;14.70;;;;;;;24.96;84.14;100476.41;1820979;77;27418;-80
2022/08/18 07:22:55;;;;;;;17.30;13.20;;;;;;;25.05;83.91;100481.02;1811824;78;25743;-79
2022/08/18 07:25:29;;;;;;;16.55;13.62;;;;;;;25.13;83.66;100477.66;1787244;78;25847;-79
2022/08/18 07:27:56;;;;;;;21.65;13.38;;;;;;;25.20;82.51;100474.05;1789906;79;26188;-76
2022/08/18 07:30:28;;;;;;;16.25;12.73;;;;;;;25.27;82.51;100472.36;1787937;78;25776;-78
2022/08/18 07:33:05;;;;;;;12.78;10.72;;;;;;;25.35;82.14;100477.22;1797733;79;27444;-80
2022/08/18 07:35:55;;;;;;;15.78;10.28;;;;;;;25.43;81.09;100474.47;1793490;79;25864;-78
2022/08/18 07:38:31;;;;;;;13.68;10.48;;;;;;;25.50;79.62;100479.87;1781848;80;25287;-75
2022/08/18 07:41:26;;;;;;;13.68;9.90;;;;;;;25.56;78.99;100481.45;1817716;78;25800;-77
2022/08/18 07:44:15;;;;;;;14.03;9.95;;;;;;;25.63;79.10;100482.49;1812277;78;25783;-76
2022/08/18 07:46:57;;;;;;;14.33;9.95;;;;;;;25.71;78.91;100488.17;1801152;78;28309;-76
2022/08/18 07:49:29;;;;;;;17.12;9.88;;;;;;;25.78;77.67;100489.20;1806613;78;25807;-76
2022/08/18 07:52:04;;;;;;;10.40;8.80;;;;;;;25.83;77.15;100490.55;1818986;77;25812;-76
2022/08/18 07:54:47;;;;;;;14.15;9.58;;;;;;;25.86;75.68;100493.52;1807469;77;25752;-76
2022/08/18 07:57:43;;;;;;;12.75;9.63;;;;;;;25.92;75.72;100496.47;1822733;77;26552;-76
2022/08/18 08:00:23;;;;;;;15.32;9.40;;;;;;;25.97;75.87;100498.34;1758789;79;28234;-77
2022/08/18 08:03:10;;;;;;;14.80;8.88;;;;;;;26.03;76.00;100495.25;1800171;77;25801;-76
2022/08/18 08:06:13;;;;;;;12.00;8.73;;;;;;;26.10;75.02;100492.20;1815805;77;26417;-77
2022/08/18 08:09:08;;;;;;;12.50;9.40;;;;;;;26.17;74.92;100494.59;1813207;78;25737;-77
2022/08/18 08:11:54;;;;;;;14.23;9.58;;;;;;;26.25;75.09;100493.39;1752517;79;26072;-77
2022/08/18 08:14:45;;;;;;;12.55;9.40;;;;;;;26.32;73.90;100495.24;1803141;78;27471;-75
2022/08/18 08:17:37;;;;;;;;;;;;;;;26.34;72.66;100494.94;1802126;78;25896;-76
2022/08/18 08:20:12;;;;;;;13.58;9.13;;;;;;;26.37;72.17;100495.71;1798995;78;25801;-77
2022/08/18 08:23:16;;;;;;;12.40;9.40;;;;;;;26.38;72.00;100490.49;1784886;79;25921;-76
2022/08/18 08:25:54;;;;;;;13.50;9.00;;;;;;;26.42;72.58;100501.16;1795461;78;27768;-77
2022/08/18 08:28:29;;;;;;;11.78;8.78;;;;;;;26.48;72.10;100492.55;1789228;78;28496;-77
2022/08/18 08:31:12;;;;;;;12.40;9.83;;;;;;;26.52;71.78;100498.27;1781809;78;26427;-77
2022/08/18 08:33:50;;;;;;;16.05;9.70;;;;;;;26.56;72.10;100496.59;1738399;79;26132;-77
2022/08/18 08:36:22;;;;;;;14.43;10.25;;;;;;;26.64;72.84;100502.80;1775434;78;25825;-75
2022/08/18 08:39:00;;;;;;;15.28;9.43;;;;;;;26.66;71.62;100502.77;1804590;77;25763;-75
2022/08/18 08:41:50;;;;;;;14.33;9.10;;;;;;;26.68;71.55;100501.92;1780803;80;28281;-76
2022/08/18 08:44:27;;;;;;;14.78;9.43;;;;;;;26.74;71.49;100509.01;1805436;78;26232;-76
2022/08/18 08:47:02;;;;;;;10.15;8.88;;;;;;;26.78;70.83;100497.41;1815865;77;25805;-76
2022/08/18 08:49:43;;;;;;;16.23;9.45;;;;;;;26.85;71.15;100491.82;1809518;77;26341;-77
2022/08/18 08:52:27;;;;;;;17.55;10.05;;;;;;;26.83;70.73;100490.47;1805752;77;25724;-77
2022/08/18 08:55:08;;;;;;;13.03;10.00;;;;;;;26.85;70.84;100489.07;1804432;77;27458;-76
2022/08/18 08:57:44;;;;;;;;;;;;;;;26.89;70.16;100484.61;1815327;78;25801;-76
2022/08/18 09:00:13;;;;;;;12.03;9.33;;;;;;;26.92;70.05;100479.91;1812859;78;25885;-77
2022/08/18 09:02:53;;;;;;;18.07;9.60;;;;;;;26.97;70.74;100478.44;1813369;77;27748;-77
2022/08/18 09:05:30;;;;;;;10.10;9.03;;;;;;;27.04;69.71;100483.02;1805972;77;25904;-76
2022/08/18 09:08:11;;;;;;;15.15;9.68;;;;;;;27.13;69.64;100482.60;1806744;78;28276;-76
2022/08/18 09:11:19;;;;;;;15.75;9.05;;;;;;;27.06;68.68;100479.95;1804026;77;25798;-76
2022/08/18 09:14:19;;;;;;;13.58;9.10;;;;;;;27.04;68.70;100480.81;1792032;78;25942;-77
2022/08/18 09:17:26;;;;;;;12.03;8.38;;;;;;;27.09;69.18;100476.06;1772335;79;25884;-76
2022/08/18 09:20:25;;;;;;;10.72;8.10;;;;;;;27.17;69.05;100476.77;1758062;79;25958;-76
2022/08/18 09:23:22;;;;;;;12.63;9.05;;;;;;;27.24;68.80;100477.20;1769935;80;47601;-76
2022/08/18 09:25:53;;;;;;;12.13;8.93;;;;;;;27.30;68.44;100481.50;1807710;78;25889;-76
2022/08/18 09:28:31;;;;;;;15.58;9.05;;;;;;;27.33;67.69;100471.26;1778804;79;25741;-76
2022/08/18 09:31:06;;;;;;;13.80;8.98;;;;;;;27.38;68.56;100475.34;1792171;79;26592;-77
2022/08/18 09:33:53;;;;;;;10.75;9.73;;;;;;;27.42;68.50;100468.12;1801550;79;25734;-76
2022/08/18 09:36:36;;;;;;;11.93;9.08;;;;;;;27.49;68.02;100469.11;1801290;78;28290;-76
2022/08/18 09:42:19;;;;;;;17.52;8.75;;;;;;;27.51;66.47;100468.24;1806812;78;25787;-76
2022/08/18 09:44:51;;;;;;;12.82;9.68;;;;;;;27.50;66.50;100471.55;1802329;78;25685;-77
2022/08/18 09:47:26;;;;;;;14.07;9.45;;;;;;;27.53;66.87;100477.02;1801897;79;25947;-76
2022/08/18 09:49:59;;;;;;;10.58;9.18;;;;;;;27.61;67.51;100480.44;1803630;78;27446;-77
2022/08/18 09:52:34;;;;;;;11.22;9.88;;;;;;;27.67;67.51;100477.05;1752404;79;25833;-77
2022/08/18 09:55:05;;;;;;;15.10;9.63;;;;;;;27.75;66.96;100472.22;1795189;79;25759;-77
2022/08/18 09:57:35;;;;;;;19.23;10.93;;;;;;;27.78;66.26;100471.63;1801954;79;25882;-76
2022/08/18 10:00:12;;;;;;;11.65;9.48;;;;;;;27.78;66.32;100477.92;1799193;79;25732;-76
2022/08/18 10:02:41;;;;;;;14.40;9.70;;;;;;;27.80;65.88;100476.27;1804732;78;27507;-76
2022/08/18 10:05:22;;;;;;;10.60;8.95;;;;;;;27.83;66.19;100473.72;1802213;79;25946;-75
2022/08/18 10:08:05;;;;;;;11.25;9.05;;;;;;;27.88;66.26;100476.39;1795630;79;25851;-76
2022/08/18 10:11:02;;;;;;;11.65;8.40;;;;;;;27.97;65.55;100475.94;1798112;79;25873;-76
2022/08/18 10:14:07;;;;;;;10.55;9.40;;;;;;;28.05;65.90;100471.13;1798352;79;26050;-77
2022/08/18 10:16:51;;;;;;;10.20;8.60;;;;;;;28.13;65.66;100475.09;1793701;79;27499;-77
2022/08/18 10:19:28;;;;;;;10.98;9.08;;;;;;;28.15;64.74;100466.79;1799783;78;25837;-77
2022/08/18 10:22:00;;;;;;;14.83;9.08;;;;;;;28.21;64.57;100473.00;1790926;79;26438;-76
2022/08/18 10:24:38;;;;;;;10.05;8.65;;;;;;;28.22;63.90;100471.34;1799075;78;25724;-76
2022/08/18 10:27:45;;;;;;;11.68;8.68;;;;;;;28.24;64.19;100475.98;1792911;77;25889;-77
2022/08/18 10:30:35;;;;;;;9.48;8.58;;;;;;;28.24;64.23;100477.36;1813473;78;27427;-76
2022/08/18 10:33:09;;;;;;;11.80;8.68;;;;;;;28.28;63.95;100474.79;1842093;77;25881;-74
2022/08/18 10:35:40;;;;;;;11.57;8.40;;;;;;;28.34;63.75;100475.48;1812225;78;26576;-76
2022/08/18 10:38:18;;;;;;;12.53;8.95;;;;;;;28.41;63.36;100472.59;1825386;77;25885;-76
2022/08/18 10:41:03;;;;;;;13.53;8.63;;;;;;;28.43;62.98;100474.48;1833633;77;26492;-76
2022/08/18 10:43:47;;;;;;;14.78;8.43;;;;;;;28.48;63.49;100474.37;1822874;77;27615;-76
2022/08/18 10:46:18;;;;;;;10.20;7.80;;;;;;;28.57;63.29;100480.80;1805985;78;26044;-76
2022/08/18 10:49:12;;;;;;;16.57;8.93;;;;;;;28.68;63.24;100484.16;1808710;78;25773;-76
2022/08/18 10:52:13;;;;;;;10.18;8.38;;;;;;;28.73;62.95;100479.36;1797014;78;26245;-76
2022/08/18 10:55:11;;;;;;;12.75;8.80;;;;;;;28.77;62.30;100485.89;1799782;78;25862;-76
2022/08/18 10:58:03;;;;;;;12.60;8.50;;;;;;;28.80;63.10;100477.56;1790658;78;28306;-77
2022/08/18 11:01:06;;;;;;;9.18;8.18;;;;;;;28.87;62.04;100476.00;1801117;78;26472;-76
2022/08/18 11:03:43;;;;;;;10.90;8.03;;;;;;;28.94;62.02;100470.87;1798112;78;25731;-77
2022/08/18 11:06:15;;;;;;;8.83;7.97;;;;;;;28.92;61.28;100473.13;1801721;78;26538;-79
2022/08/18 11:08:48;;;;;;;11.80;8.03;;;;;;;28.93;61.79;100474.75;1814182;78;25853;-79
2022/08/18 11:11:23;;;;;;;9.75;7.45;;;;;;;28.98;61.31;100475.20;1811316;78;27457;-79
2022/08/18 11:14:35;;;;;;;11.78;8.10;;;;;;;29.04;61.57;100472.59;1808662;78;25911;-80
2022/08/18 11:17:09;;;;;;;11.70;7.55;;;;;;;29.07;61.14;100469.75;1799391;78;25707;-78
2022/08/18 11:19:42;;;;;;;12.30;8.28;;;;;;;29.05;61.02;100459.05;1734250;78;26244;-77
2022/08/18 11:22:28;;;;;;;10.28;7.45;;;;;;;29.05;59.89;100461.80;1811608;78;25760;-80
2022/08/18 11:24:54;;;;;;;11.95;7.60;;;;;;;29.04;59.98;100453.84;1803968;78;27928;-77
2022/08/18 11:27:28;;;;;;;9.18;7.40;;;;;;;29.00;59.59;100453.64;1804905;78;26455;-78
2022/08/18 11:30:01;;;;;;;9.85;7.33;;;;;;;29.02;60.19;100456.89;1818263;76;25818;-77
2022/08/18 11:32:38;;;;;;;12.45;7.37;;;;;;;29.06;60.48;100462.62;1825793;77;25737;-78
2022/08/18 11:35:14;;;;;;;9.23;6.78;;;;;;;29.08;59.54;100453.47;1825100;77;26087;-78
2022/08/18 11:37:55;;;;;;;8.88;7.42;;;;;;;29.12;59.04;100449.77;1818832;77;27445;-78
2022/08/18 11:40:47;;;;;;;13.60;7.75;;;;;;;29.15;59.24;100446.96;1816233;77;25807;-78
2022/08/18 11:43:19;;;;;;;10.45;7.45;;;;;;;29.13;59.27;100450.59;1801554;79;25743;-77
2022/08/18 11:45:51;;;;;;;13.83;7.15;;;;;;;29.16;59.61;100449.98;1810399;78;26463;-77
2022/08/18 11:48:39;;;;;;;13.32;6.83;;;;;;;29.27;59.67;100450.81;1809848;78;25265;-78
2022/08/18 11:51:24;;;;;;;8.70;7.58;;;;;;;29.37;59.36;100442.27;1803923;78;28308;-77
2022/08/18 11:54:04;;;;;;;12.88;7.15;;;;;;;29.37;58.79;100438.13;1804607;78;26061;-78
2022/08/18 11:56:33;;;;;;;12.45;7.28;;;;;;;29.36;58.02;100435.11;1842503;75;25841;-78
2022/08/18 11:59:27;;;;;;;12.75;7.10;;;;;;;29.34;57.86;100434.61;1828656;77;25765;-80
2022/08/18 12:01:55;;;;;;;12.18;6.62;;;;;;;29.40;58.37;100433.93;1839120;77;25813;-79
2022/08/18 12:04:41;;;;;;;9.68;7.35;;;;;;;29.52;58.54;100429.45;1839636;77;28277;-79
2022/08/18 12:07:12;;;;;;;9.85;7.30;;;;;;;29.62;58.76;100426.41;1802191;78;25911;-79